Map

Track Data

SID SEASON NUMBER BASIN SUBBASIN NAME ISO_TIME NATURE LAT LON WMO_WIND WMO_PRES WMO_AGENCY TRACK_TYPE DIST2LAND LANDFALL IFLAG USA_AGENCY USA_ATCF_ID USA_LAT USA_LON USA_RECORD USA_STATUS USA_WIND USA_PRES USA_SSHS USA_R34_NE USA_R34_SE USA_R34_SW USA_R34_NW USA_R50_NE USA_R50_SE USA_R50_SW USA_R50_NW USA_R64_NE USA_R64_SE USA_R64_SW USA_R64_NW USA_POCI USA_ROCI USA_RMW USA_EYE TOKYO_LAT TOKYO_LON TOKYO_GRADE TOKYO_WIND TOKYO_PRES TOKYO_R50_DIR TOKYO_R50_LONG TOKYO_R50_SHORT TOKYO_R30_DIR TOKYO_R30_LONG TOKYO_R30_SHORT TOKYO_LAND CMA_LAT CMA_LON CMA_CAT CMA_WIND CMA_PRES HKO_LAT HKO_LON HKO_CAT HKO_WIND HKO_PRES NEWDELHI_LAT NEWDELHI_LON NEWDELHI_GRADE NEWDELHI_WIND NEWDELHI_PRES NEWDELHI_CI NEWDELHI_DP NEWDELHI_POCI REUNION_LAT REUNION_LON REUNION_TYPE REUNION_WIND REUNION_PRES REUNION_TNUM REUNION_CI REUNION_RMW REUNION_R34_NE REUNION_R34_SE REUNION_R34_SW REUNION_R34_NW REUNION_R50_NE REUNION_R50_SE REUNION_R50_SW REUNION_R50_NW REUNION_R64_NE REUNION_R64_SE REUNION_R64_SW REUNION_R64_NW BOM_LAT BOM_LON BOM_TYPE BOM_WIND BOM_PRES BOM_TNUM BOM_CI BOM_RMW BOM_R34_NE BOM_R34_SE BOM_R34_SW BOM_R34_NW BOM_R50_NE BOM_R50_SE BOM_R50_SW BOM_R50_NW BOM_R64_NE BOM_R64_SE BOM_R64_SW BOM_R64_NW BOM_ROCI BOM_POCI BOM_EYE BOM_POS_METHOD BOM_PRES_METHOD NADI_LAT NADI_LON NADI_CAT NADI_WIND NADI_PRES WELLINGTON_LAT WELLINGTON_LON WELLINGTON_WIND WELLINGTON_PRES DS824_LAT DS824_LON DS824_STAGE DS824_WIND DS824_PRES TD9636_LAT TD9636_LON TD9636_STAGE TD9636_WIND TD9636_PRES TD9635_LAT TD9635_LON TD9635_WIND TD9635_PRES TD9635_ROCI NEUMANN_LAT NEUMANN_LON NEUMANN_CLASS NEUMANN_WIND NEUMANN_PRES MLC_LAT MLC_LON MLC_CLASS MLC_WIND MLC_PRES USA_GUST BOM_GUST BOM_GUST_PER REUNION_GUST REUNION_GUST_PER USA_SEAHGT USA_SEARAD_NE USA_SEARAD_SE USA_SEARAD_SW USA_SEARAD_NW STORM_SPEED STORM_DIR
1975020S25164 1975 13 SP MM NOT_NAMED 1975-01-19 12:00:00 TS -25.4000 164.100 spur-split 417 398 O________OO___ jtwc_sh SH131975 -25.4000 164.100 -1 -25.4000 164.100 TC -25.4000 164.100 2 23 108
1975020S25164 1975 13 SP MM NOT_NAMED 1975-01-19 15:00:00 TS -25.7627 165.306 spur-split 405 396 P________PP___ SH131975 -25.7616 165.301 -1 -25.7616 165.301 TC -25.7749 165.391 2 23 108
1975020S25164 1975 13 SP MM NOT_NAMED 1975-01-19 18:00:00 TS -26.0984 166.506 spur-split 413 413 O________OP___ jtwc_sh SH131975 -26.1000 166.500 -1 -26.1000 166.500 TC -26.1143 166.620 2 22 107
1975020S25164 1975 13 SP MM NOT_NAMED 1975-01-19 21:00:00 TS -26.3914 167.653 spur-split 454 454 P________PP___ SH131975 -26.3951 167.655 -1 -26.3951 167.655 TC -26.3961 167.715 2 20 105
1975020S25164 1975 13 SP MM NOT_NAMED 1975-01-19 23:00:00 TS -26.5424 168.317 spur-split 479 493 P________PP___ SH131975 -26.5449 168.321 -1 -26.5449 168.321 TC -26.5418 168.333 2 17 104
1975020S25164 1975 13 SP MM NOT_NAMED 1975-01-20 00:00:00 TS -26.6000 168.600 spur-split 499 499 O________OO___ jtwc_sh SH131975 -26.6000 168.600 -1 -26.6000 168.600 TC -26.6000 168.600 2 12 101
1975020S25164 1975 13 SP MM NOT_NAMED 1975-01-20 03:00:00 TS -26.6912 169.209 spur-split 533 533 P________PP___ SH131975 -26.6787 169.198 -1 -26.6787 169.198 TC -26.7160 169.231 2 9 98
1975020S25164 1975 13 SP MM NOT_NAMED 1975-01-20 06:00:00 TS -26.7226 169.625 spur-split 552 552 O________OP___ jtwc_sh SH131975 -26.7000 169.600 -1 -26.7000 169.600 TC -26.7679 169.676 2 7 96
1975020S25164 1975 13 SP MM NOT_NAMED 1975-01-20 09:00:00 TS -26.7618 170.011 spur-split 582 582 P________PP___ SH131975 -26.7496 170.000 -1 -26.7496 170.000 TC -26.7862 170.033 2 7 96
1975020S25164 1975 13 SP MM NOT_NAMED 1975-01-20 12:00:00 TS -26.8000 170.400 spur-split 605 605 O________OO___ jtwc_sh SH131975 -26.8000 170.400 -1 -26.8000 170.400 TC -26.8000 170.400 2 8 97
1975020S25164 1975 13 SP MM NOT_NAMED 1975-01-20 15:00:00 TS -26.8549 170.876 spur-split 644 644 P________PP___ SH131975 -26.8498 170.870 -1 -26.8498 170.870 TC -26.8651 170.888 2 9 97
1975020S25164 1975 13 SP MM NOT_NAMED 1975-01-20 18:00:00 TS -26.9094 171.403 spur-split 677 677 O________OP___ jtwc_sh SH131975 -26.9000 171.400 -1 -26.9000 171.400 TC -26.9282 171.409 2 10 96
1975020S25164 1975 13 SP MM NOT_NAMED 1975-01-20 21:00:00 TS -26.9639 171.972 spur-split 727 727 P________PP___ SH131975 -26.9572 171.970 -1 -26.9572 171.970 TC -26.9772 171.976 2 11 95
1975020S25164 1975 13 SP MM NOT_NAMED 1975-01-21 00:00:00 TS -27.0000 172.600 spur-split 771 771 O________OO___ jtwc_sh SH131975 -27.0000 172.600 -1 -27.0000 172.600 TC -27.0000 172.600 2 12 92
1975020S25164 1975 13 SP MM NOT_NAMED 1975-01-21 03:00:00 TS -27.0102 173.272 spur-split 824 824 P________PP___ SH131975 -27.0221 173.270 -1 -27.0221 173.270 TC -26.9864 173.277 2 13 89
1975020S25164 1975 13 SP MM NOT_NAMED 1975-01-21 06:00:00 TS -26.9814 174.003 spur-split 842 842 O________OP___ jtwc_sh SH131975 -27.0000 174.000 -1 -27.0000 174.000 TC -26.9441 174.010 2 14 85
1975020S25164 1975 13 SP MM NOT_NAMED 1975-01-21 09:00:00 TS -26.9031 174.786 spur-split 865 865 P________PP___ SH131975 -26.9148 174.785 -1 -26.9148 174.785 TC -26.8797 174.789 2 14 83
1975020S25164 1975 13 SP MM NOT_NAMED 1975-01-21 12:00:00 TS -26.8000 175.600 spur-split 894 894 O________OO___ jtwc_sh SH131975 -26.8000 175.600 -1 -26.8000 175.600 TC -26.8000 175.600 2 14 82
1975020S25164 1975 13 SP MM NOT_NAMED 1975-01-21 15:00:00 TS -26.7023 176.363 spur-split 928 928 P________PP___ SH131975 -26.6993 176.385 -1 -26.6993 176.385 TC -26.7085 176.320 2 14 82
1975020S25164 1975 13 SP MM NOT_NAMED 1975-01-21 18:00:00 TS -26.6018 177.161 spur-split 930 916 O________OP___ jtwc_sh SH131975 -26.6000 177.200 -1 -26.6000 177.200 TC -26.6055 177.083 2 15 82
1975020S25164 1975 13 SP MM NOT_NAMED 1975-01-21 21:00:00 TS -26.4991 178.006 spur-split 916 906 P________PP___ SH131975 -26.4986 178.032 -1 -26.4986 178.032 TC -26.5002 177.954 2 17 83
1975020S25164 1975 13 SP MM NOT_NAMED 1975-01-22 00:00:00 TS -26.4000 179.000 spur-split 909 905 O________OO___ jtwc_sh SH131975 -26.4000 179.000 -1 -26.4000 179.000 TC -26.4000 179.000 2 20 84
1975020S25164 1975 13 SP MM NOT_NAMED 1975-01-22 03:00:00 TS -26.3013 180.175 spur-split 917 917 P________PP___ SH131975 -26.2981 -179.870 -1 -26.2981 -179.870 TC -26.3076 -179.735 2 23 85
1975020S25164 1975 13 SP MM NOT_NAMED 1975-01-22 06:00:00 TS -26.2051 181.571 spur-split 949 949 O________OP___ jtwc_sh SH131975 -26.2000 -178.500 -1 -26.2000 181.500 TC -26.2153 -178.288 2 27 86
1975020S25164 1975 13 SP MM NOT_NAMED 1975-01-22 09:00:00 TS -26.1084 183.178 spur-split 1007 1007 P________PP___ SH131975 -26.1052 -176.872 -1 -26.1052 -176.872 TC -26.1149 -176.723 2 30 86
1975020S25164 1975 13 SP MM NOT_NAMED 1975-01-22 12:00:00 TS -26.0000 184.900 spur-split 1089 O________OO___ jtwc_sh SH131975 -26.0000 -175.100 -1 -26.0000 184.900 TC -26.0000 -175.100 6 31 86

Digital Typhoon Data and Search

About IBTrACS Database

This database is a web-friendly format of International Best Track Archive for Climate Stewardship (IBTrACS), a global best track data archive curated by NOAA dating back to 1842.

Updated: 2021-10-27